Time;durP1;ratioP1;P1;durP2;ratioP2;P2;SDS_P1;SDS_P2;PMS_P1;PMS_P2;Temp;Humidity;BMP_temperature;BMP_pressure;BME280_temperature;BME280_humidity;BME280_pressure;Samples;Min_cycle;Max_cycle;Signal;HPM_P1;HPM_P2
2023/03/05 00:01:54;;;;;;;9.63;1.88;;;;;;;6.38;62.33;100238.97;5012565;28;20120;-78
2023/03/05 00:04:22;;;;;;;9.60;2.30;;;;;;;6.38;62.47;100240.72;5013586;28;20116;-79
2023/03/05 00:06:49;;;;;;;10.32;2.17;;;;;;;6.37;62.59;100231.19;5013044;28;20045;-81
2023/03/05 00:09:16;;;;;;;13.43;2.65;;;;;;;6.37;62.62;100228.56;5012611;28;20089;-76
2023/03/05 00:11:43;;;;;;;5.63;2.20;;;;;;;6.36;62.43;100234.69;5013459;28;20137;-78
2023/03/05 00:14:10;;;;;;;7.22;1.88;;;;;;;6.33;62.71;100225.19;5013579;28;20141;-77
2023/03/05 00:16:37;;;;;;;6.85;2.00;;;;;;;6.30;62.62;100222.69;5012930;28;20054;-79
2023/03/05 00:19:04;;;;;;;7.95;2.20;;;;;;;6.30;62.72;100224.41;5013528;28;20402;-80
2023/03/05 00:21:37;;;;;;;9.25;2.53;;;;;;;6.27;63.16;100221.94;5013627;28;20089;-79
2023/03/05 00:24:09;;;;;;;3.67;1.70;;;;;;;6.26;63.03;100215.84;5012225;28;20088;-80
2023/03/05 00:26:37;;;;;;;10.75;2.63;;;;;;;6.27;63.22;100219.31;5011521;28;20050;-80
2023/03/05 00:29:05;;;;;;;12.43;2.28;;;;;;;6.27;62.86;100216.69;5013614;28;20073;-77
2023/03/05 00:31:33;;;;;;;6.65;1.85;;;;;;;6.23;63.14;100208.94;5013388;28;20105;-79
2023/03/05 00:34:03;;;;;;;8.40;1.92;;;;;;;6.23;63.09;100213.31;5013365;28;20058;-77
2023/03/05 00:36:30;;;;;;;9.38;2.47;;;;;;;6.22;62.92;100201.16;5013081;28;20783;-77
2023/03/05 00:38:57;;;;;;;9.95;2.58;;;;;;;6.21;63.07;100207.28;5011865;28;20140;-78
2023/03/05 00:41:24;;;;;;;7.47;2.42;;;;;;;6.19;62.97;100198.63;5013021;28;20487;-79
2023/03/05 00:43:51;;;;;;;6.07;2.42;;;;;;;6.18;63.04;100202.16;5011840;28;20425;-77
2023/03/05 00:46:18;;;;;;;7.50;1.85;;;;;;;6.16;63.03;100199.56;5012643;28;20132;-77
2023/03/05 00:48:44;;;;;;;10.35;2.00;;;;;;;6.16;63.10;100190.91;5012928;28;20116;-78
2023/03/05 00:51:11;;;;;;;7.50;1.60;;;;;;;6.16;63.28;100190.91;5012816;28;20061;-77
2023/03/05 00:53:38;;;;;;;6.93;2.05;;;;;;;6.15;63.28;100182.19;5012877;28;20046;-77
2023/03/05 00:56:05;;;;;;;4.75;1.67;;;;;;;6.16;63.54;100180.44;5012383;28;20422;-77
2023/03/05 00:58:32;;;;;;;9.27;1.85;;;;;;;6.16;63.46;100176.06;5012573;28;20092;-77
2023/03/05 01:01:00;;;;;;;8.48;2.08;;;;;;;6.16;63.24;100165.59;5012563;28;20093;-77
2023/03/05 01:03:27;;;;;;;10.38;2.45;;;;;;;6.17;63.28;100174.31;5012670;28;20056;-77
2023/03/05 01:05:54;;;;;;;7.88;1.83;;;;;;;6.16;63.43;100172.59;5012160;28;20057;-77
2023/03/05 01:08:20;;;;;;;9.15;2.45;;;;;;;6.15;63.16;100163.88;5012107;28;20046;-77
2023/03/05 01:10:47;;;;;;;10.15;2.28;;;;;;;6.11;63.46;100159.66;5012496;28;20560;-77
2023/03/05 01:13:14;;;;;;;7.95;1.80;;;;;;;6.11;63.38;100154.44;5012312;28;20515;-78
2023/03/05 01:15:41;;;;;;;6.30;1.88;;;;;;;6.09;63.60;100148.41;5011868;28;20140;-80
2023/03/05 01:18:08;;;;;;;6.03;1.90;;;;;;;6.08;63.68;100146.69;5012113;28;20060;-79
2023/03/05 01:20:35;;;;;;;15.45;2.70;;;;;;;6.06;63.60;100149.34;5011075;28;20120;-80
2023/03/05 01:23:01;;;;;;;8.20;1.75;;;;;;;6.06;63.36;100138.06;5012643;28;20081;-79
2023/03/05 01:25:28;;;;;;;6.43;1.77;;;;;;;6.05;63.62;100133.75;5011782;28;20725;-80
2023/03/05 01:27:55;;;;;;;13.48;3.25;;;;;;;6.04;63.91;100147.69;5012058;28;20058;-80
2023/03/05 01:30:21;;;;;;;5.10;1.75;;;;;;;6.03;63.32;100144.22;5011639;28;20057;-77
2023/03/05 01:32:48;;;;;;;6.47;2.28;;;;;;;6.03;63.68;100138.09;5012025;28;20137;-79
2023/03/05 01:35:18;;;;;;;10.00;2.13;;;;;;;6.03;63.79;100140.72;5011576;28;20096;-81
2023/03/05 01:37:44;;;;;;;6.85;2.05;;;;;;;6.02;63.74;100134.63;5011909;28;20054;-79
2023/03/05 01:40:13;;;;;;;5.53;2.00;;;;;;;6.00;63.92;100132.09;5012179;28;20045;-80
2023/03/05 01:42:45;;;;;;;6.72;2.33;;;;;;;5.99;64.11;100132.13;5011994;28;20437;-79
2023/03/05 01:45:16;;;;;;;9.65;2.33;;;;;;;5.98;64.29;100127.81;5010402;28;20045;-78
2023/03/05 01:47:44;;;;;;;5.57;2.13;;;;;;;5.96;63.81;100119.16;5011434;28;20514;-78
2023/03/05 01:50:14;;;;;;;5.47;2.15;;;;;;;5.95;64.35;100122.69;5011752;28;20053;-79
2023/03/05 01:52:48;;;;;;;4.15;1.70;;;;;;;5.94;64.37;100116.59;5011974;28;20049;-78
2023/03/05 01:55:18;;;;;;;8.93;2.20;;;;;;;5.95;64.25;100114.84;5011591;28;20461;-78
2023/03/05 01:57:50;;;;;;;9.50;1.83;;;;;;;5.94;64.04;100110.53;5010198;28;20049;-78
2023/03/05 02:00:45;;;;;;;7.30;1.92;;;;;;;5.92;64.53;100109.72;5011634;28;20060;-79
2023/03/05 02:03:13;;;;;;;5.93;1.80;;;;;;;5.94;64.24;100106.13;5010159;28;20054;-79
2023/03/05 02:05:43;;;;;;;7.55;1.85;;;;;;;5.92;63.94;100102.75;5011100;28;20116;-78
2023/03/05 02:08:12;;;;;;;6.82;2.03;;;;;;;5.91;64.22;100100.16;5009609;28;20049;-78
2023/03/05 02:10:45;;;;;;;6.30;1.73;;;;;;;5.90;64.42;100094.06;5011586;28;20060;-80
2023/03/05 02:13:17;;;;;;;11.75;2.17;;;;;;;5.90;64.46;100093.25;5010334;28;20068;-80
2023/03/05 02:15:46;;;;;;;5.95;1.70;;;;;;;5.91;64.23;100101.00;5011359;28;20062;-79
2023/03/05 02:18:12;;;;;;;6.85;2.00;;;;;;;5.90;64.27;100088.84;5011071;28;20745;-79
2023/03/05 02:20:46;;;;;;;4.32;1.55;;;;;;;5.89;64.50;100084.53;5011448;28;20046;-78
2023/03/05 02:23:13;;;;;;;5.40;2.00;;;;;;;5.90;64.29;100088.00;5011223;28;20045;-80
2023/03/05 02:25:40;;;;;;;9.13;1.90;;;;;;;5.88;64.25;100077.59;5010951;28;20149;-79
2023/03/05 02:28:16;;;;;;;5.63;1.70;;;;;;;5.86;64.83;100079.41;5011134;28;20054;-78
2023/03/05 02:30:42;;;;;;;9.55;2.58;;;;;;;5.89;64.57;100075.84;5011120;28;20045;-79
2023/03/05 02:33:09;;;;;;;8.85;1.92;;;;;;;5.89;64.38;100075.84;5011172;28;20553;-78
2023/03/05 02:35:36;;;;;;;4.60;1.60;;;;;;;5.87;64.45;100071.53;5009567;28;20050;-79
2023/03/05 02:38:02;;;;;;;11.40;2.25;;;;;;;5.86;64.59;100063.72;5009537;28;20054;-78
2023/03/05 02:40:29;;;;;;;5.68;1.73;;;;;;;5.87;64.58;100068.06;5011017;28;20433;-79
2023/03/05 02:42:55;;;;;;;8.30;1.90;;;;;;;5.85;64.20;100062.88;5009009;28;20123;-78
2023/03/05 02:45:22;;;;;;;6.40;1.55;;;;;;;5.85;64.01;100068.13;5010835;28;20050;-78
2023/03/05 02:47:48;;;;;;;6.35;1.50;;;;;;;5.85;64.32;100064.63;5010807;28;20053;-79
2023/03/05 02:50:15;;;;;;;7.45;1.58;;;;;;;5.83;64.34;100056.84;5010848;28;20057;-78
2023/03/05 02:52:42;;;;;;;5.28;1.75;;;;;;;5.82;64.20;100056.88;5011016;28;20085;-78
2023/03/05 02:55:09;;;;;;;5.40;1.58;;;;;;;5.81;64.21;100050.84;5010697;28;20145;-78
2023/03/05 02:57:35;;;;;;;7.78;1.67;;;;;;;5.80;64.57;100038.66;5010566;28;20418;-79
2023/03/05 03:00:03;;;;;;;7.18;2.28;;;;;;;5.78;64.43;100034.38;5009535;28;20060;-78
2023/03/05 03:02:30;;;;;;;4.93;1.90;;;;;;;5.77;64.50;100030.06;5142170;22;20056;-81
2023/03/05 03:04:57;;;;;;;8.20;2.13;;;;;;;5.76;64.45;100023.16;5008043;28;20050;-81
2023/03/05 03:07:23;;;;;;;8.00;1.90;;;;;;;5.75;64.72;100024.88;5009746;28;20080;-81
2023/03/05 03:09:50;;;;;;;7.03;2.22;;;;;;;5.73;64.54;100024.09;5008740;28;20057;-81
2023/03/05 03:12:16;;;;;;;5.50;1.88;;;;;;;5.70;64.43;100018.97;5008796;28;20054;-81
2023/03/05 03:14:43;;;;;;;4.95;1.67;;;;;;;5.68;64.38;100015.56;5009781;28;20050;-81
2023/03/05 03:17:12;;;;;;;3.92;1.50;;;;;;;5.66;64.43;100019.97;5009591;28;20396;-80
2023/03/05 03:19:39;;;;;;;10.57;2.60;;;;;;;5.63;64.58;100018.31;5009876;28;20046;-81
2023/03/05 03:22:08;;;;;;;7.65;2.38;;;;;;;5.60;64.57;100008.81;5008871;28;20062;-81
2023/03/05 03:24:36;;;;;;;5.80;1.38;;;;;;;5.60;65.03;100013.19;5009855;28;20484;-81
2023/03/05 03:27:02;;;;;;;7.63;1.73;;;;;;;5.61;64.84;100007.91;5007768;28;20066;-81
2023/03/05 03:29:30;;;;;;;4.78;1.83;;;;;;;5.60;64.98;100010.56;5009846;28;20054;-81
2023/03/05 03:31:56;;;;;;;5.85;1.50;;;;;;;5.59;64.94;100004.50;5008421;28;20072;-81
2023/03/05 03:34:23;;;;;;;10.18;1.77;;;;;;;5.59;65.04;100006.25;5008419;28;20057;-81
2023/03/05 03:36:51;;;;;;;3.92;1.50;;;;;;;5.58;65.00;100005.41;5009073;28;20061;-81
2023/03/05 03:39:18;;;;;;;7.45;2.33;;;;;;;5.58;64.96;100009.78;5010034;28;20424;-81
2023/03/05 03:41:48;;;;;;;5.40;1.75;;;;;;;5.58;64.78;100005.41;5009677;28;20061;-81
2023/03/05 03:44:16;;;;;;;6.47;1.63;;;;;;;5.58;64.73;99994.13;5008564;28;20050;-81
2023/03/05 03:46:47;;;;;;;7.43;1.92;;;;;;;5.57;65.01;99997.63;5007579;28;20554;-81
2023/03/05 03:49:20;;;;;;;3.83;1.75;;;;;;;5.56;65.60;100002.00;5009782;28;20050;-81
2023/03/05 03:51:47;;;;;;;4.63;1.90;;;;;;;5.56;65.01;99985.47;5009664;28;20050;-81
2023/03/05 03:54:15;;;;;;;7.30;1.85;;;;;;;5.55;65.07;99986.38;5011385;28;20535;-81
2023/03/05 03:56:42;;;;;;;4.88;1.40;;;;;;;5.55;65.40;99976.78;5013192;28;20502;-81
2023/03/05 03:59:09;;;;;;;8.07;1.73;;;;;;;5.56;65.32;99972.41;5013194;28;20061;-81
2023/03/05 04:01:35;;;;;;;7.20;1.85;;;;;;;5.57;65.37;99974.13;5012902;28;20103;-81
2023/03/05 04:04:03;;;;;;;3.17;1.50;;;;;;;5.57;65.26;99977.56;5013244;28;20100;-81
2023/03/05 04:06:29;;;;;;;10.32;2.05;;;;;;;5.59;65.40;99965.34;5012661;28;20518;-80
2023/03/05 04:08:56;;;;;;;6.85;1.65;;;;;;;5.60;65.16;99960.94;5011363;28;20523;-81
2023/03/05 04:11:22;;;;;;;8.35;1.92;;;;;;;5.61;65.24;99965.28;5012902;28;20513;-81
2023/03/05 04:13:50;;;;;;;4.68;1.85;;;;;;;5.64;65.48;99959.13;5012976;28;20091;-81
2023/03/05 04:16:18;;;;;;;4.10;1.88;;;;;;;5.64;65.63;99961.72;5012497;28;20058;-81
2023/03/05 04:18:44;;;;;;;4.63;1.40;;;;;;;5.63;65.32;99949.53;5012486;28;20061;-81
2023/03/05 04:21:11;;;;;;;5.15;1.95;;;;;;;5.65;65.41;99947.75;5012599;28;20049;-81
2023/03/05 04:23:38;;;;;;;7.28;2.28;;;;;;;5.64;65.49;99952.13;5011685;28;20049;-81
2023/03/05 04:26:05;;;;;;;4.40;1.75;;;;;;;5.65;65.37;99950.38;5012497;28;20046;-81
2023/03/05 04:28:32;;;;;;;8.13;2.05;;;;;;;5.65;65.63;99950.38;5010975;28;20050;-81
2023/03/05 04:30:58;;;;;;;7.43;2.10;;;;;;;5.66;65.93;99952.06;5012707;28;20049;-81
2023/03/05 04:33:25;;;;;;;3.70;1.92;;;;;;;5.67;65.39;99940.72;5012841;28;20058;-81
2023/03/05 04:35:51;;;;;;;5.78;1.75;;;;;;;5.67;65.48;99938.97;5011084;28;20054;-81
2023/03/05 04:38:18;;;;;;;3.95;1.80;;;;;;;5.66;65.47;99937.25;5010859;28;20054;-81
2023/03/05 04:40:45;;;;;;;6.47;1.45;;;;;;;5.65;65.36;99938.19;5012452;28;20053;-81
2023/03/05 04:43:12;;;;;;;9.43;1.75;;;;;;;5.65;65.58;99932.09;5012345;28;20053;-81
2023/03/05 04:45:40;;;;;;;5.82;1.55;;;;;;;5.64;65.70;99933.00;5012106;28;20115;-81
2023/03/05 04:48:08;;;;;;;6.93;2.25;;;;;;;5.65;65.65;99934.69;5012331;28;20061;-81
2023/03/05 04:50:34;;;;;;;5.38;1.60;;;;;;;5.66;65.40;99931.16;5012368;28;20050;-82
2023/03/05 04:53:01;;;;;;;9.98;2.30;;;;;;;5.65;65.67;99932.09;5010933;28;20066;-81
2023/03/05 04:55:28;;;;;;;8.05;2.17;;;;;;;5.64;65.81;99926.00;5011805;28;20060;-81
2023/03/05 04:57:54;;;;;;;8.77;1.60;;;;;;;5.64;65.74;99919.94;5011575;28;20412;-81
2023/03/05 05:00:21;;;;;;;4.32;1.90;;;;;;;5.62;65.71;99922.59;5012465;28;20123;-81
2023/03/05 05:02:50;;;;;;;4.47;1.90;;;;;;;5.59;66.14;99917.47;5011650;28;20065;-81
2023/03/05 05:05:20;;;;;;;6.85;1.67;;;;;;;5.60;65.93;99916.56;5011226;28;20511;-81
2023/03/05 05:07:46;;;;;;;7.45;2.15;;;;;;;5.59;65.80;99910.50;5010196;28;20432;-81
2023/03/05 05:10:14;;;;;;;9.45;2.20;;;;;;;5.59;66.16;99914.84;5011747;28;20050;-81
2023/03/05 05:12:41;;;;;;;6.25;2.08;;;;;;;5.59;66.28;99915.72;5010736;28;20054;-81
2023/03/05 05:15:08;;;;;;;7.72;2.05;;;;;;;5.59;66.25;99910.50;5010337;28;20139;-81
2023/03/05 05:17:35;;;;;;;7.70;2.08;;;;;;;5.61;66.02;99906.06;5011268;28;20052;-81
2023/03/05 05:20:05;;;;;;;8.07;2.17;;;;;;;5.63;66.29;99919.06;5011820;28;20080;-81
2023/03/05 05:22:32;;;;;;;3.35;1.67;;;;;;;5.65;66.14;99911.19;5011500;28;20076;-81
2023/03/05 05:24:59;;;;;;;10.88;2.55;;;;;;;5.65;66.14;99917.28;5011495;28;20057;-81
2023/03/05 05:27:26;;;;;;;6.10;2.30;;;;;;;5.66;66.18;99911.16;5009950;28;20054;-81
2023/03/05 05:29:52;;;;;;;7.47;2.08;;;;;;;5.68;66.01;99913.72;5011473;28;20509;-81
2023/03/05 05:32:21;;;;;;;5.75;1.80;;;;;;;5.68;66.17;99916.31;5011272;28;20516;-81
2023/03/05 05:34:48;;;;;;;9.85;2.28;;;;;;;5.68;66.17;99911.94;5011166;28;20064;-81
2023/03/05 05:37:14;;;;;;;4.40;1.63;;;;;;;5.68;66.18;99911.09;5011084;28;20057;-81
2023/03/05 05:39:40;;;;;;;8.23;2.38;;;;;;;5.68;66.26;99911.09;5010243;28;20054;-81
2023/03/05 05:42:07;;;;;;;6.18;1.98;;;;;;;5.69;66.45;99913.63;5011348;28;20061;-81
2023/03/05 05:44:33;;;;;;;5.43;2.13;;;;;;;5.69;66.13;99916.25;5011602;28;20061;-81
2023/03/05 05:47:00;;;;;;;7.10;1.92;;;;;;;5.70;66.02;99911.88;5010416;28;20060;-81
2023/03/05 05:49:27;;;;;;;5.18;2.28;;;;;;;5.69;66.15;99908.41;5009857;28;20049;-81
2023/03/05 05:51:53;;;;;;;5.93;2.30;;;;;;;5.69;66.25;99904.97;5010986;28;20076;-81
2023/03/05 05:54:20;;;;;;;7.63;2.70;;;;;;;5.69;66.37;99911.03;5011322;28;20057;-81
2023/03/05 05:56:46;;;;;;;6.38;2.67;;;;;;;5.68;66.22;99904.09;5010464;28;20466;-81
2023/03/05 05:59:12;;;;;;;6.40;2.92;;;;;;;5.67;66.12;99910.22;5010997;28;20050;-81
2023/03/05 06:01:39;;;;;;;7.95;3.17;;;;;;;5.68;66.17;99909.31;5010751;28;20057;-82
2023/03/05 06:04:05;;;;;;;8.15;2.75;;;;;;;5.66;65.93;99907.66;5010971;28;20119;-81
2023/03/05 06:06:33;;;;;;;8.52;2.85;;;;;;;5.65;66.23;99906.84;5010395;28;20045;-81
2023/03/05 06:09:00;;;;;;;7.63;2.63;;;;;;;5.65;66.26;99908.59;5010862;28;20057;-81
2023/03/05 06:11:27;;;;;;;6.47;2.72;;;;;;;5.62;66.28;99912.16;5010732;28;20052;-81
2023/03/05 06:13:53;;;;;;;6.30;3.10;;;;;;;5.61;66.21;99908.69;5010787;28;20054;-81
2023/03/05 06:16:23;;;;;;;5.47;2.67;;;;;;;5.60;66.61;99908.72;5010441;28;20056;-81
2023/03/05 06:18:51;;;;;;;6.93;2.33;;;;;;;5.61;66.57;99910.44;5010210;28;20050;-81
2023/03/05 06:21:19;;;;;;;5.55;2.35;;;;;;;5.59;66.57;99900.06;5010684;28;20053;-81
2023/03/05 06:23:46;;;;;;;5.93;2.47;;;;;;;5.59;66.38;99901.81;5010557;28;20045;-81
2023/03/05 06:26:16;;;;;;;5.85;2.20;;;;;;;5.59;66.43;99905.28;5010235;28;20050;-81
2023/03/05 06:28:42;;;;;;;4.95;2.20;;;;;;;5.59;66.47;99901.81;5010236;28;20053;-81
2023/03/05 06:31:12;;;;;;;3.08;2.28;;;;;;;5.57;66.41;99898.41;5010598;28;20111;-81
2023/03/05 06:33:40;;;;;;;8.15;2.95;;;;;;;5.58;66.21;99900.09;5010334;28;20054;-81
2023/03/05 06:36:08;;;;;;;7.65;2.40;;;;;;;5.57;66.73;99906.25;5010122;28;20069;-81
2023/03/05 06:38:36;;;;;;;5.20;2.47;;;;;;;5.59;66.55;99893.97;5009980;28;20053;-81
2023/03/05 06:41:08;;;;;;;5.00;2.00;;;;;;;5.60;66.86;99890.44;5010325;28;20058;-81
2023/03/05 06:43:37;;;;;;;2.00;1.13;;;;;;;5.62;66.64;99891.25;5010418;28;20137;-81
2023/03/05 06:46:13;;;;;;;5.35;1.85;;;;;;;5.61;66.77;99894.78;5009793;28;20049;-81
2023/03/05 06:48:39;;;;;;;3.30;1.60;;;;;;;5.65;66.51;99888.56;5008793;28;20053;-81
2023/03/05 06:51:15;;;;;;;5.53;1.85;;;;;;;5.63;66.80;99892.09;5010224;28;20049;-82
2023/03/05 06:53:43;;;;;;;5.45;1.85;;;;;;;5.64;66.30;99888.59;5010279;28;20045;-81
2023/03/05 06:56:10;;;;;;;4.18;2.05;;;;;;;5.65;66.67;99879.84;5009695;28;20054;-81
2023/03/05 06:58:36;;;;;;;4.15;1.40;;;;;;;5.65;66.70;99879.84;5008490;28;20057;-81
2023/03/05 07:01:05;;;;;;;3.53;1.52;;;;;;;5.66;66.49;99884.16;5010207;28;20049;-81
2023/03/05 07:03:35;;;;;;;2.88;1.75;;;;;;;5.69;66.54;99881.47;5008763;28;20504;-81
2023/03/05 07:06:07;;;;;;;6.93;1.73;;;;;;;5.68;66.74;99880.59;5009861;28;20050;-81
2023/03/05 07:08:34;;;;;;;2.50;1.38;;;;;;;5.71;66.71;99883.09;5009456;28;20049;-81
2023/03/05 07:11:00;;;;;;;3.03;1.30;;;;;;;5.72;66.88;99881.34;5009815;28;20061;-81
2023/03/05 07:13:27;;;;;;;3.78;1.67;;;;;;;5.74;66.56;99884.75;5010163;28;20065;-81
2023/03/05 07:15:54;;;;;;;6.68;1.88;;;;;;;5.76;66.71;99882.09;5009639;28;20077;-81
2023/03/05 07:18:20;;;;;;;3.67;1.42;;;;;;;5.76;66.71;99875.13;5009893;28;20100;-81
2023/03/05 07:20:47;;;;;;;5.13;1.33;;;;;;;5.79;66.80;99877.59;5010296;28;20061;-81
2023/03/05 07:23:13;;;;;;;3.40;1.40;;;;;;;5.79;66.76;99879.38;5009952;28;20053;-81
2023/03/05 07:25:40;;;;;;;5.28;1.63;;;;;;;5.82;66.90;99874.88;5008402;28;20054;-81
2023/03/05 07:28:08;;;;;;;5.75;1.52;;;;;;;5.84;66.50;99877.44;5008611;28;20072;-81
2023/03/05 07:30:34;;;;;;;3.17;1.30;;;;;;;5.86;66.71;99868.66;5014245;28;20111;-81
2023/03/05 07:33:01;;;;;;;3.97;1.52;;;;;;;5.87;66.69;99875.56;5013844;28;20057;-81
2023/03/05 07:35:28;;;;;;;5.90;1.20;;;;;;;5.90;66.38;99879.00;5013201;28;20060;-81
2023/03/05 07:37:54;;;;;;;3.97;1.38;;;;;;;5.92;66.69;99877.16;5011981;28;20554;-81
2023/03/05 07:40:21;;;;;;;6.68;1.30;;;;;;;5.94;66.84;99876.22;5013523;28;20062;-82
2023/03/05 07:42:48;;;;;;;2.28;1.27;;;;;;;5.96;66.75;99873.53;5013801;28;20062;-81
2023/03/05 07:45:14;;;;;;;3.33;1.02;;;;;;;6.00;67.01;99876.00;5013335;28;20062;-81
2023/03/05 07:47:40;;;;;;;2.63;1.48;;;;;;;6.04;66.59;99874.16;5013468;28;20053;-81
2023/03/05 07:50:08;;;;;;;1.70;1.13;;;;;;;6.07;66.55;99868.81;5013298;28;20057;-81
2023/03/05 07:52:34;;;;;;;2.75;1.23;;;;;;;6.10;66.47;99873.91;5012071;28;20061;-81
2023/03/05 07:55:00;;;;;;;1.77;1.15;;;;;;;6.12;66.52;99869.50;5011694;28;20135;-81
2023/03/05 07:57:34;;;;;;;2.08;0.98;;;;;;;6.16;66.68;99866.78;5013082;28;20058;-83
2023/03/05 08:00:00;;;;;;;2.20;1.00;;;;;;;6.19;66.53;99867.50;5013373;28;20072;-82
2023/03/05 08:02:27;;;;;;;5.25;1.38;;;;;;;6.22;66.80;99866.53;5013060;28;20334;-81
2023/03/05 08:04:53;;;;;;;2.92;1.10;;;;;;;6.26;66.64;99865.53;5012817;28;20058;-81
2023/03/05 08:07:20;;;;;;;1.50;0.90;;;;;;;6.27;66.42;99864.59;5012660;28;20492;-81
2023/03/05 08:09:46;;;;;;;2.03;1.17;;;;;;;6.29;66.34;99868.03;5013216;28;20416;-82
2023/03/05 08:12:13;;;;;;;2.92;1.23;;;;;;;6.31;66.29;99868.81;5013100;28;20058;-81
2023/03/05 08:14:39;;;;;;;5.25;1.60;;;;;;;6.33;66.25;99869.63;5011795;28;20050;-81
2023/03/05 08:17:06;;;;;;;2.20;1.30;;;;;;;6.36;66.73;99863.41;5012494;28;20049;-81
2023/03/05 08:19:32;;;;;;;4.25;1.27;;;;;;;6.37;66.33;99860.75;5011586;28;20053;-81
2023/03/05 08:21:59;;;;;;;4.15;1.52;;;;;;;6.39;66.31;99850.22;5011435;28;20069;-81
2023/03/05 08:24:28;;;;;;;6.55;1.40;;;;;;;6.42;66.24;99849.28;5011874;28;20053;-80
2023/03/05 08:26:58;;;;;;;4.00;1.50;;;;;;;6.43;66.58;99846.56;5010878;28;20072;-81
2023/03/05 08:29:25;;;;;;;3.80;1.33;;;;;;;6.49;66.37;99853.34;5012709;28;20073;-81
2023/03/05 08:31:52;;;;;;;4.05;1.30;;;;;;;6.53;66.50;99846.25;5011075;28;20463;-81
2023/03/05 08:34:20;;;;;;;5.80;1.40;;;;;;;6.55;66.56;99847.88;5012499;28;20548;-81
2023/03/05 08:36:46;;;;;;;4.55;1.48;;;;;;;6.61;66.45;99849.38;5011945;28;20050;-81
2023/03/05 08:39:13;;;;;;;3.90;1.50;;;;;;;6.64;66.50;99847.53;5012648;28;20046;-81
2023/03/05 08:41:39;;;;;;;4.43;1.17;;;;;;;6.69;66.70;99842.09;5011343;28;20054;-81
2023/03/05 08:44:06;;;;;;;3.60;1.50;;;;;;;6.74;66.43;99839.31;5012686;28;20062;-81
2023/03/05 08:46:33;;;;;;;5.55;2.03;;;;;;;6.80;66.37;99840.81;5010499;28;20057;-81
2023/03/05 08:49:00;;;;;;;4.78;1.42;;;;;;;6.84;66.22;99835.41;5010634;28;20466;-81
2023/03/05 08:51:26;;;;;;;4.53;2.03;;;;;;;6.88;66.24;99831.75;5011024;28;20061;-81
2023/03/05 08:53:56;;;;;;;3.72;1.70;;;;;;;6.92;65.76;99835.09;5012188;28;20054;-81
2023/03/05 08:56:25;;;;;;;6.43;1.95;;;;;;;6.95;65.61;99827.09;5011840;28;20049;-81
2023/03/05 08:58:51;;;;;;;4.45;1.73;;;;;;;6.99;65.34;99833.09;5011795;28;20046;-81
2023/03/05 09:01:18;;;;;;;3.65;1.25;;;;;;;7.00;65.68;99824.31;5012098;28;20053;-81
2023/03/05 09:03:45;;;;;;;2.38;1.60;;;;;;;7.02;65.42;99825.94;5008008;22;20045;-78
2023/03/05 09:06:11;;;;;;;3.42;1.58;;;;;;;7.07;65.49;99836.25;5012404;28;20046;-78
2023/03/05 09:08:38;;;;;;;4.57;1.50;;;;;;;7.11;65.41;99829.09;5012453;28;20100;-80
2023/03/05 09:11:09;;;;;;;6.10;1.67;;;;;;;7.12;65.08;99829.06;5012780;28;20137;-80
2023/03/05 09:13:35;;;;;;;1.83;1.25;;;;;;;7.18;65.23;99835.81;5012605;28;20046;-80
2023/03/05 09:16:05;;;;;;;4.55;1.30;;;;;;;7.21;65.25;99835.66;5012222;28;20149;-81
2023/03/05 09:18:32;;;;;;;3.83;1.40;;;;;;;7.26;65.60;99827.63;5011901;28;20077;-79
2023/03/05 09:21:03;;;;;;;3.55;1.70;;;;;;;7.29;64.81;99819.63;5012548;28;20497;-80
2023/03/05 09:23:30;;;;;;;5.80;1.52;;;;;;;7.34;64.89;99817.66;5012593;28;20137;-80
2023/03/05 09:25:56;;;;;;;3.83;1.40;;;;;;;7.36;64.58;99818.44;5012088;28;20447;-80
2023/03/05 09:28:23;;;;;;;3.60;1.48;;;;;;;7.37;64.47;99816.69;5011868;28;20518;-79
2023/03/05 09:30:50;;;;;;;5.13;1.55;;;;;;;7.38;64.49;99821.88;5012510;28;20104;-80
2023/03/05 09:33:16;;;;;;;3.38;1.80;;;;;;;7.41;64.62;99816.47;5012006;28;20136;-80
2023/03/05 09:35:43;;;;;;;5.30;1.60;;;;;;;7.42;64.48;99818.19;5010589;28;20556;-80
2023/03/05 09:38:10;;;;;;;6.20;1.48;;;;;;;7.49;64.80;99817.91;5010684;28;20048;-80
2023/03/05 09:40:47;;;;;;;3.88;1.63;;;;;;;7.48;63.36;99808.38;5011956;28;20049;-80
2023/03/05 09:43:33;;;;;;;3.03;1.58;;;;;;;7.51;63.17;99813.47;5011915;28;20056;-80
2023/03/05 09:46:14;;;;;;;4.25;1.52;;;;;;;7.55;63.36;99812.41;5011855;28;20136;-81
2023/03/05 09:48:47;;;;;;;3.03;1.50;;;;;;;7.62;64.20;99813.84;5011786;28;20054;-80
2023/03/05 09:51:24;;;;;;;4.95;2.28;;;;;;;7.65;64.04;99810.25;5011491;28;20076;-80
2023/03/05 09:54:19;;;;;;;3.63;1.73;;;;;;;7.73;63.66;99815.16;5012007;28;20050;-80
2023/03/05 09:56:49;;;;;;;4.70;1.60;;;;;;;7.83;64.18;99803.34;5011270;28;20057;-79
2023/03/05 09:59:16;;;;;;;4.30;1.42;;;;;;;7.90;64.24;99804.78;5011828;28;20054;-80
2023/03/05 10:01:43;;;;;;;4.55;1.77;;;;;;;7.97;63.82;99807.09;5011691;28;20050;-80
2023/03/05 10:04:14;;;;;;;4.00;1.45;;;;;;;8.03;63.53;99798.94;5011800;28;20062;-79
2023/03/05 10:07:23;;;;;;;4.30;1.70;;;;;;;8.07;61.82;99797.88;5010982;28;20546;-78
2023/03/05 10:09:55;;;;;;;7.18;2.25;;;;;;;8.18;62.11;99798.25;4953846;28;20138;-79
2023/03/05 10:12:41;;;;;;;5.63;1.77;;;;;;;8.21;60.98;99800.75;5006642;28;20116;-79
2023/03/05 10:15:12;;;;;;;2.72;1.30;;;;;;;8.30;61.84;99803.84;5009739;28;20140;-81
2023/03/05 10:17:47;;;;;;;5.05;1.65;;;;;;;8.34;62.42;99793.13;5011017;28;20088;-79
2023/03/05 10:20:45;;;;;;;3.75;1.55;;;;;;;8.35;60.61;99783.50;5011504;28;20395;-81
2023/03/05 10:23:28;;;;;;;5.28;1.88;;;;;;;8.39;60.39;99778.94;5011117;28;20513;-81
2023/03/05 10:26:23;;;;;;;4.70;1.60;;;;;;;8.41;60.44;99780.56;5011148;28;20482;-80
2023/03/05 10:28:55;;;;;;;5.38;1.52;;;;;;;8.50;61.62;99776.69;5010914;28;20038;-80
2023/03/05 10:31:45;;;;;;;3.85;1.42;;;;;;;8.55;61.00;99773.84;5011228;28;20614;-80
2023/03/05 10:34:47;;;;;;;5.75;1.40;;;;;;;8.61;60.17;99765.69;5011033;28;20491;-79
2023/03/05 10:37:51;;;;;;;5.75;1.42;;;;;;;8.69;59.03;99755.69;5013093;28;20052;-80
2023/03/05 10:40:42;;;;;;;5.57;1.67;;;;;;;8.79;58.59;99756.03;5009579;28;20042;-79
2023/03/05 10:43:09;;;;;;;3.33;1.70;;;;;;;8.93;61.30;99754.53;5011081;28;20042;-80
2023/03/05 10:45:40;;;;;;;4.38;1.70;;;;;;;9.02;59.94;99750.59;5010452;28;20168;-80
2023/03/05 10:48:42;;;;;;;4.22;1.70;;;;;;;9.14;58.95;99747.34;5010611;28;20053;-79
2023/03/05 10:51:42;;;;;;;4.20;1.40;;;;;;;9.33;59.16;99747.25;5010976;28;20504;-79
2023/03/05 10:54:28;;;;;;;3.88;1.17;;;;;;;9.49;59.39;99741.16;5003289;28;20050;-81
2023/03/05 10:57:17;;;;;;;1.90;1.30;;;;;;;9.60;58.02;99737.97;5010284;28;20817;-80
2023/03/05 10:59:53;;;;;;;6.72;2.22;;;;;;;9.68;57.54;99729.69;5017472;28;20099;-79
2023/03/05 11:02:21;;;;;;;5.13;1.55;;;;;;;9.76;58.88;99736.22;5023427;28;20050;-80
2023/03/05 11:04:50;;;;;;;3.60;1.40;;;;;;;9.78;58.70;99739.63;5010880;28;20483;-79
2023/03/05 11:07:17;;;;;;;3.17;1.35;;;;;;;9.78;58.62;99730.88;5013643;28;20045;-79
2023/03/05 11:09:58;;;;;;;8.32;2.00;;;;;;;9.71;56.97;99725.09;5012836;28;20089;-80
2023/03/05 11:12:27;;;;;;;3.47;1.15;;;;;;;9.73;57.69;99719.78;5011715;28;20045;-79
2023/03/05 11:15:06;;;;;;;3.95;1.60;;;;;;;9.67;56.55;99726.19;5013985;28;20568;-79
2023/03/05 11:17:46;;;;;;;4.32;1.50;;;;;;;9.68;57.26;99717.38;5014129;28;20140;-80
2023/03/05 11:20:25;;;;;;;3.75;1.40;;;;;;;9.67;56.60;99714.81;5013254;28;20502;-79
2023/03/05 11:23:37;;;;;;;1.63;0.80;;;;;;;9.69;55.66;99710.34;5014833;28;20052;-79
2023/03/05 11:26:12;;;;;;;6.50;1.30;;;;;;;9.78;56.97;99704.59;5010161;28;20546;-79
2023/03/05 11:28:40;;;;;;;3.55;1.05;;;;;;;9.92;58.76;99703.84;5014408;28;20085;-80
2023/03/05 11:31:17;;;;;;;4.97;1.90;;;;;;;9.99;55.70;99693.84;5014468;28;20085;-80
2023/03/05 11:34:15;;;;;;;2.65;0.90;;;;;;;10.03;54.08;99690.94;5014379;28;20050;-79
2023/03/05 11:37:02;;;;;;;5.35;1.63;;;;;;;10.03;54.03;99692.72;4992623;28;20477;-79
2023/03/05 11:39:32;;;;;;;3.05;1.05;;;;;;;10.04;56.07;99686.53;5014295;28;20085;-79
2023/03/05 11:42:24;;;;;;;2.78;1.05;;;;;;;10.00;55.14;99688.50;5013146;28;20045;-79
2023/03/05 11:44:55;;;;;;;3.10;1.10;;;;;;;10.08;56.17;99687.19;5013975;28;20633;-79
2023/03/05 11:47:38;;;;;;;2.80;1.17;;;;;;;10.16;55.59;99679.72;5014073;28;20057;-80
2023/03/05 11:50:30;;;;;;;3.53;0.93;;;;;;;10.30;55.01;99674.53;5014286;28;20598;-79
2023/03/05 11:52:58;;;;;;;3.95;1.40;;;;;;;10.53;56.80;99671.53;5014007;28;20092;-80